createdAt,value
2022-08-03T00:00:00.143Z,1003.7
2022-08-03T00:01:01.187Z,1003.8
2022-08-03T00:02:02.135Z,1003.8
2022-08-03T00:03:03.117Z,1003.7
2022-08-03T00:04:04.096Z,1003.7
2022-08-03T00:05:06.151Z,1003.7
2022-08-03T00:06:07.132Z,1003.7
2022-08-03T00:07:08.112Z,1003.8
2022-08-03T00:08:09.092Z,1003.8
2022-08-03T00:09:10.117Z,1003.8
2022-08-03T00:10:11.113Z,1003.8
2022-08-03T00:11:12.113Z,1003.8
2022-08-03T00:12:13.304Z,1003.8
2022-08-03T00:13:14.113Z,1003.8
2022-08-03T00:14:15.192Z,1003.8
2022-08-03T00:15:16.769Z,1003.8
2022-08-03T00:16:17.153Z,1003.8
2022-08-03T00:17:18.133Z,1003.8
2022-08-03T00:18:19.073Z,1003.8
2022-08-03T00:19:20.453Z,1003.8
2022-08-03T00:20:22.199Z,1003.8
2022-08-03T00:21:23.154Z,1003.8
2022-08-03T00:22:24.113Z,1003.8
2022-08-03T00:23:25.092Z,1003.8
2022-08-03T00:24:26.133Z,1003.8
2022-08-03T00:25:27.166Z,1003.8
2022-08-03T00:26:28.160Z,1003.7
2022-08-03T00:27:29.134Z,1003.7
2022-08-03T00:28:30.132Z,1003.8
2022-08-03T00:29:31.113Z,1003.7
2022-08-03T00:30:32.153Z,1003.7
2022-08-03T00:31:39.990Z,1003.7
2022-08-03T00:32:34.074Z,1003.7
2022-08-03T00:33:57.879Z,1003.7
2022-08-03T00:34:36.778Z,1003.8
2022-08-03T00:35:50.537Z,1003.8
2022-08-03T00:36:38.153Z,1003.8
2022-08-03T00:37:41.152Z,1003.8
2022-08-03T00:38:40.173Z,1003.8
2022-08-03T00:39:41.112Z,1003.8
2022-08-03T00:40:42.072Z,1003.9
2022-08-03T00:41:43.212Z,1003.8
2022-08-03T00:42:44.130Z,1003.8
2022-08-03T00:43:45.113Z,1003.8
2022-08-03T00:44:46.120Z,1003.8
2022-08-03T00:45:47.122Z,1003.8
2022-08-03T00:46:48.252Z,1003.8
2022-08-03T00:47:49.123Z,1003.7
2022-08-03T00:48:50.535Z,1003.7
2022-08-03T00:49:52.174Z,1003.8
2022-08-03T00:50:54.220Z,1003.7
2022-08-03T00:51:55.056Z,1003.7
2022-08-03T00:52:56.172Z,1003.7
2022-08-03T00:53:57.153Z,1003.7
2022-08-03T00:54:58.213Z,1003.7
2022-08-03T00:55:59.165Z,1003.7
2022-08-03T00:57:00.607Z,1003.7
2022-08-03T00:58:01.193Z,1003.7
2022-08-03T00:59:02.153Z,1003.7
2022-08-03T01:00:03.548Z,1003.7
2022-08-03T01:04:03.237Z,1003.7
2022-08-03T01:05:05.130Z,1003.7
2022-08-03T01:06:06.113Z,1003.7
2022-08-03T01:07:10.613Z,1003.7
2022-08-03T01:08:09.135Z,1003.6
2022-08-03T01:09:10.155Z,1003.7
2022-08-03T01:10:11.114Z,1003.7
2022-08-03T01:11:12.115Z,1003.7
2022-08-03T01:12:13.152Z,1003.7
2022-08-03T01:13:59.122Z,1003.7
2022-08-03T01:14:18.509Z,1003.7
2022-08-03T01:15:16.175Z,1003.7
2022-08-03T01:16:17.115Z,1003.7
2022-08-03T01:17:18.135Z,1003.7
2022-08-03T01:18:19.181Z,1003.7
2022-08-03T01:19:20.129Z,1003.7
2022-08-03T01:20:21.154Z,1003.7
2022-08-03T01:21:22.115Z,1003.7
2022-08-03T01:22:23.114Z,1003.7
2022-08-03T01:23:24.154Z,1003.7
2022-08-03T01:24:25.096Z,1003.7
2022-08-03T01:25:26.154Z,1003.1
2022-08-03T01:26:27.138Z,1003.5
2022-08-03T01:27:28.134Z,1003.6
2022-08-03T01:28:29.175Z,1003.6
2022-08-03T01:29:30.202Z,1003.6
2022-08-03T01:30:31.174Z,1003.6
2022-08-03T01:31:32.114Z,1003.6
2022-08-03T01:32:52.582Z,1003.6
2022-08-03T01:33:34.156Z,1003.6
2022-08-03T01:34:35.153Z,1003.6
2022-08-03T01:35:38.479Z,1003.5
2022-08-03T01:36:37.155Z,1003.6
2022-08-03T01:37:38.593Z,1003.6
2022-08-03T01:38:39.240Z,1003.6
2022-08-03T01:39:40.198Z,1003.6
2022-08-03T01:40:41.154Z,1003.5
2022-08-03T01:41:42.154Z,1003.5
2022-08-03T01:42:43.155Z,1003.5
2022-08-03T01:43:55.573Z,1003.5
2022-08-03T01:44:45.192Z,1003.5
2022-08-03T01:45:46.135Z,1003.5
2022-08-03T01:46:47.495Z,1003.5
2022-08-03T01:47:48.135Z,1003.5
2022-08-03T01:48:49.157Z,1003.5
2022-08-03T01:49:50.669Z,1003.5
2022-08-03T01:50:52.154Z,1003.5
2022-08-03T01:51:56.232Z,1003.5
2022-08-03T01:52:54.156Z,1003.5
2022-08-03T01:53:55.135Z,1003.6
2022-08-03T01:54:56.153Z,1003.5
2022-08-03T01:55:57.175Z,1003.5
2022-08-03T01:56:58.174Z,1003.5
2022-08-03T01:58:05.131Z,1003.5
2022-08-03T01:59:00.134Z,1002.8
2022-08-03T02:00:01.276Z,1003.3
2022-08-03T02:01:02.224Z,1003.4
2022-08-03T02:02:15.135Z,1003.4
2022-08-03T02:03:04.247Z,1003.4
2022-08-03T02:04:05.134Z,1003.4
2022-08-03T02:05:10.548Z,1003.4
2022-08-03T02:06:40.977Z,1003.4
2022-08-03T02:07:08.154Z,1003.4
2022-08-03T02:08:09.214Z,1003.4
2022-08-03T02:09:10.194Z,1003.4
2022-08-03T02:10:11.182Z,1003.4
2022-08-03T02:11:12.233Z,1003.4
2022-08-03T02:12:13.174Z,1003.4
2022-08-03T02:13:14.194Z,1003.4
2022-08-03T02:14:15.223Z,1003.4
2022-08-03T02:15:16.367Z,1003.3
2022-08-03T02:16:17.193Z,1003.4
2022-08-03T02:17:18.154Z,1003.4
2022-08-03T02:18:25.317Z,1003.4
2022-08-03T02:19:26.193Z,1003.4
2022-08-03T02:20:27.179Z,1003.4
2022-08-03T02:21:55.519Z,1003.3
2022-08-03T02:22:29.213Z,1003.3
2022-08-03T02:23:30.194Z,1003.3
2022-08-03T02:24:31.173Z,1003.4
2022-08-03T02:25:32.258Z,1003.1
2022-08-03T02:26:33.215Z,1003.3
2022-08-03T02:27:34.234Z,1003.3
2022-08-03T02:28:35.174Z,1003.3
2022-08-03T02:29:38.902Z,1003.3
2022-08-03T02:30:38.293Z,1003.3
2022-08-03T02:31:40.176Z,1003.3
2022-08-03T02:32:41.173Z,1003.3
2022-08-03T02:33:42.254Z,1003.3
2022-08-03T02:34:43.200Z,1003.3
2022-08-03T02:35:44.213Z,1003.3
2022-08-03T02:36:45.254Z,1003.4
2022-08-03T02:37:49.526Z,1003.4
2022-08-03T02:38:47.176Z,1003.3
2022-08-03T02:39:48.194Z,1003.3
2022-08-03T02:40:49.201Z,1003.3
2022-08-03T02:41:50.635Z,1003.3
2022-08-03T02:42:52.193Z,1003
2022-08-03T02:44:00.371Z,1003.2
2022-08-03T02:44:54.157Z,1003.3
2022-08-03T02:45:55.156Z,1003.3
2022-08-03T02:46:56.213Z,1003.3
2022-08-03T02:47:57.194Z,1003.3
2022-08-03T02:48:58.312Z,1003.3
2022-08-03T02:49:59.398Z,1003.3
2022-08-03T02:51:01.193Z,1003.3
2022-08-03T02:52:02.175Z,1003.4
2022-08-03T02:53:03.215Z,1003.4
2022-08-03T02:54:04.281Z,1003.4
2022-08-03T02:55:05.154Z,1003.4
2022-08-03T02:56:06.193Z,1003.4
2022-08-03T02:57:07.174Z,1003.5
2022-08-03T02:58:14.359Z,1003.5
2022-08-03T02:59:15.261Z,1003.4
2022-08-03T03:00:19.589Z,1003.4
2022-08-03T03:01:17.824Z,1003.4
2022-08-03T03:02:19.473Z,1003.4
2022-08-03T03:03:21.270Z,1003.4
2022-08-03T03:04:24.969Z,1003.4
2022-08-03T03:05:51.904Z,1003.4
2022-08-03T03:06:25.213Z,1003.5
2022-08-03T03:07:26.218Z,1003.5
2022-08-03T03:08:28.570Z,1003.4
2022-08-03T03:09:39.938Z,1003.4
2022-08-03T03:10:29.254Z,1003.4
2022-08-03T03:11:30.235Z,1003.5
2022-08-03T03:12:31.139Z,1003.5
2022-08-03T03:13:32.233Z,1003.5
2022-08-03T03:14:34.198Z,1003.5
2022-08-03T03:15:34.233Z,1003.5
2022-08-03T03:16:35.208Z,1003.5
2022-08-03T03:17:36.233Z,1003.5
2022-08-03T03:18:37.193Z,1003.5
2022-08-03T03:19:38.213Z,1003.5
2022-08-03T03:20:39.315Z,1003.5
2022-08-03T03:21:40.262Z,1003.5
2022-08-03T03:22:41.224Z,1003.5
2022-08-03T03:23:42.213Z,1003.5
2022-08-03T03:24:43.213Z,1003.5
2022-08-03T03:25:44.233Z,1003.5
2022-08-03T03:26:45.261Z,1003.5
2022-08-03T03:27:47.155Z,1003.5
2022-08-03T03:28:47.233Z,1003.5
2022-08-03T03:29:48.233Z,1003.5
2022-08-03T03:30:52.947Z,1003.5
2022-08-03T03:31:50.757Z,1003.5
2022-08-03T03:32:52.703Z,1003.5
2022-08-03T03:33:54.233Z,1003.5
2022-08-03T03:34:55.233Z,1003.6
2022-08-03T03:35:56.192Z,1003.5
2022-08-03T03:36:57.214Z,1003.5
2022-08-03T03:37:58.233Z,1003.5
2022-08-03T03:38:59.278Z,1003.5
2022-08-03T03:40:00.252Z,1003.6
2022-08-03T03:41:01.193Z,1003.5
2022-08-03T03:42:02.252Z,1003.5
2022-08-03T03:43:03.234Z,1003.6
2022-08-03T03:44:04.215Z,1003.6
2022-08-03T03:45:05.235Z,1003.5
2022-08-03T03:46:06.233Z,1003.5
2022-08-03T03:47:07.232Z,1003.5
2022-08-03T03:48:08.193Z,1003.5
2022-08-03T03:49:09.270Z,1003.5
2022-08-03T03:50:10.232Z,1003.5
2022-08-03T03:51:11.252Z,1003.5
2022-08-03T03:52:12.252Z,1003.5
2022-08-03T03:53:13.233Z,1003.5
2022-08-03T03:54:14.244Z,1003.5
2022-08-03T03:55:15.195Z,1003.5
2022-08-03T03:56:16.233Z,1003.5
2022-08-03T03:57:17.232Z,1003.5
2022-08-03T03:58:18.195Z,1003.5
2022-08-03T03:59:19.272Z,1003.5
2022-08-03T04:00:20.252Z,1003.5
2022-08-03T04:01:21.277Z,1003.5
2022-08-03T04:02:22.233Z,1003.5
2022-08-03T04:03:23.289Z,1003.5
2022-08-03T04:04:24.314Z,1003.8
2022-08-03T04:05:25.237Z,1003.6
2022-08-03T04:06:26.233Z,1003.5
2022-08-03T04:07:27.213Z,1003.5
2022-08-03T04:08:28.230Z,1003.5
2022-08-03T04:09:29.317Z,1003.6
2022-08-03T04:10:30.291Z,1002.7
2022-08-03T04:11:31.658Z,1003.3
2022-08-03T04:12:32.294Z,1003.5
2022-08-03T04:13:33.253Z,1003.6
2022-08-03T04:14:34.240Z,1003.6
2022-08-03T04:15:35.317Z,1003.5
2022-08-03T04:16:37.969Z,1003.6
2022-08-03T04:17:37.232Z,1003.5
2022-08-03T04:18:38.213Z,1003.6
2022-08-03T04:19:39.293Z,1003.6
2022-08-03T04:20:40.232Z,1003.6
2022-08-03T04:21:41.212Z,1003.6
2022-08-03T04:22:42.273Z,1003.6
2022-08-03T04:23:43.289Z,1003.6
2022-08-03T04:24:44.293Z,1003
2022-08-03T04:25:45.241Z,1003.5
2022-08-03T04:26:49.608Z,1003.6
2022-08-03T04:27:47.273Z,1003.7
2022-08-03T04:28:48.295Z,1003.7
2022-08-03T04:29:49.215Z,1003.7
2022-08-03T04:30:50.813Z,1003.6
2022-08-03T04:31:52.312Z,1003.7
2022-08-03T04:32:53.299Z,1003.7
2022-08-03T04:33:54.215Z,1003.7
2022-08-03T04:34:55.274Z,1003.7
2022-08-03T04:36:00.949Z,1003.7
2022-08-03T04:36:57.332Z,1003.7
2022-08-03T04:37:58.304Z,1003.7
2022-08-03T04:38:59.374Z,1003.7
2022-08-03T04:40:01.355Z,1003.7
2022-08-03T04:41:02.272Z,1003.8
2022-08-03T04:42:17.041Z,1003.7
2022-08-03T04:43:04.233Z,1003.7
2022-08-03T04:44:05.334Z,1003.7
2022-08-03T04:45:06.292Z,1003.7
2022-08-03T04:46:08.313Z,1003.8
2022-08-03T04:47:10.277Z,1003.8
2022-08-03T04:48:12.333Z,1003.8
2022-08-03T04:49:14.469Z,1003.8
2022-08-03T04:50:19.479Z,1003.8
2022-08-03T04:51:17.323Z,1003.8
2022-08-03T04:52:19.357Z,1003.8
2022-08-03T04:53:20.232Z,1003.8
2022-08-03T04:54:21.275Z,1003.7
2022-08-03T04:55:22.253Z,1003.7
2022-08-03T04:56:23.253Z,1003.7
2022-08-03T04:57:24.316Z,1003.7
2022-08-03T04:58:25.233Z,1003.7
2022-08-03T04:59:26.312Z,1003.7
2022-08-03T05:00:27.313Z,1003.8
2022-08-03T05:01:28.346Z,1003.8
2022-08-03T05:02:29.334Z,1003.8
2022-08-03T05:03:30.300Z,1003.8
2022-08-03T05:04:31.313Z,1003.8
2022-08-03T05:05:37.896Z,1003.7
2022-08-03T05:06:35.314Z,1003.7
2022-08-03T05:07:36.748Z,1003.7
2022-08-03T05:08:37.438Z,1003.7
2022-08-03T05:09:46.059Z,1003.7
2022-08-03T05:10:39.372Z,1003.7
2022-08-03T05:11:40.295Z,1003.7
2022-08-03T05:12:41.323Z,1003.7
2022-08-03T05:13:42.272Z,1003.6
2022-08-03T05:14:43.272Z,1003.6
2022-08-03T05:15:44.353Z,1003.7
2022-08-03T05:16:45.262Z,1003.7
2022-08-03T05:17:46.323Z,1003.6
2022-08-03T05:18:47.281Z,1003.6
2022-08-03T05:19:48.272Z,1003.6
2022-08-03T05:20:49.334Z,1003.6
2022-08-03T05:21:52.293Z,1003.6
2022-08-03T05:22:52.294Z,1003.6
2022-08-03T05:23:53.339Z,1003.7
2022-08-03T05:24:54.296Z,1003.6
2022-08-03T05:25:55.274Z,1003.7
2022-08-03T05:26:56.295Z,1003.7
2022-08-03T05:27:57.313Z,1003.7
2022-08-03T05:28:58.292Z,1003.7
2022-08-03T05:30:26.428Z,1003.7
2022-08-03T05:31:01.321Z,1003.7
2022-08-03T05:32:06.320Z,1003.7
2022-08-03T05:33:03.316Z,1003.7
2022-08-03T05:34:04.334Z,1003.7
2022-08-03T05:35:56.517Z,1003.7
2022-08-03T05:36:06.278Z,1003.7
2022-08-03T05:37:07.335Z,1003.7
2022-08-03T05:38:09.354Z,1003.7
2022-08-03T05:39:10.273Z,1003.7
2022-08-03T05:40:11.327Z,1003.8
2022-08-03T05:41:23.015Z,1003.7
2022-08-03T05:42:13.335Z,1003.7
2022-08-03T05:43:14.362Z,1003.7
2022-08-03T05:44:15.314Z,1003.8
2022-08-03T05:45:16.277Z,1003.8
2022-08-03T05:46:17.294Z,1003.8
2022-08-03T05:47:18.315Z,1003.8
2022-08-03T05:48:19.374Z,1003.8
2022-08-03T05:49:20.414Z,1003.8
2022-08-03T05:50:21.233Z,1003.8
2022-08-03T05:51:22.234Z,1003.8
2022-08-03T05:52:23.545Z,1003.8
2022-08-03T05:53:24.294Z,1003.8
2022-08-03T05:54:55.702Z,1003.8
2022-08-03T05:55:29.314Z,1003.8
2022-08-03T05:56:30.342Z,1003.8
2022-08-03T05:57:31.314Z,1003.8
2022-08-03T05:58:32.374Z,1003.8
2022-08-03T05:59:38.357Z,1003.9
2022-08-03T06:00:34.354Z,1003.8
2022-08-03T06:01:35.398Z,1003.8
2022-08-03T06:02:36.294Z,1003.8
2022-08-03T06:03:37.315Z,1003.8
2022-08-03T06:04:38.316Z,1003.8
2022-08-03T06:05:43.259Z,1003.8
2022-08-03T06:06:40.415Z,1003.8
2022-08-03T06:07:41.314Z,1003.8
2022-08-03T06:08:42.381Z,1003.8
2022-08-03T06:09:56.684Z,1003.8
2022-08-03T06:10:44.374Z,1003.8
2022-08-03T06:11:45.321Z,1003.8
2022-08-03T06:12:46.251Z,1003.8
2022-08-03T06:13:47.314Z,1003.8
2022-08-03T06:14:48.374Z,1003.9
2022-08-03T06:15:49.339Z,1003.9
2022-08-03T06:16:50.295Z,1003.9
2022-08-03T06:17:51.293Z,1003.9
2022-08-03T06:18:52.317Z,1003.9
2022-08-03T06:19:53.318Z,1003.9
2022-08-03T06:20:54.356Z,1003.9
2022-08-03T06:21:55.314Z,1003.9
2022-08-03T06:23:00.071Z,1003.9
2022-08-03T06:23:57.353Z,1003.9
2022-08-03T06:24:58.315Z,1003.9
2022-08-03T06:25:59.435Z,1004
2022-08-03T06:27:00.395Z,1004
2022-08-03T06:28:01.344Z,1004
2022-08-03T06:29:03.853Z,1003.9
2022-08-03T06:30:03.441Z,1003.7
2022-08-03T06:31:04.362Z,1003.9
2022-08-03T06:32:05.415Z,1003.9
2022-08-03T06:33:08.190Z,1003.9
2022-08-03T06:34:32.026Z,1003.9
2022-08-03T06:35:08.395Z,1003.9
2022-08-03T06:36:09.375Z,1003.9
2022-08-03T06:37:10.415Z,1003.9
2022-08-03T06:38:11.353Z,1003.9
2022-08-03T06:39:12.354Z,1003.9
2022-08-03T06:40:13.854Z,1003.9
2022-08-03T06:41:14.415Z,1003.9
2022-08-03T06:42:15.549Z,1003.9
2022-08-03T06:43:16.354Z,1003.9
2022-08-03T06:44:17.536Z,1003.9
2022-08-03T06:45:19.422Z,1003.9
2022-08-03T06:46:20.322Z,1003.9
2022-08-03T06:47:21.258Z,1004
2022-08-03T06:48:22.395Z,1003.9
2022-08-03T06:49:24.424Z,1003.9
2022-08-03T06:50:26.223Z,1003.9
2022-08-03T06:52:02.699Z,1003.9
2022-08-03T06:52:37.352Z,1003.9
2022-08-03T06:53:28.294Z,1003.8
2022-08-03T06:54:32.809Z,1003.9
2022-08-03T06:55:30.374Z,1003.9
2022-08-03T06:56:31.321Z,1003.9
2022-08-03T06:57:32.374Z,1003.9
2022-08-03T06:58:33.344Z,1003.9
2022-08-03T07:00:07.067Z,1003.9
2022-08-03T07:00:35.356Z,1003.9
2022-08-03T07:01:36.393Z,1003.9
2022-08-03T07:02:37.374Z,1003.9
2022-08-03T07:03:38.381Z,1003.4
2022-08-03T07:04:39.435Z,1003.8
2022-08-03T07:05:40.335Z,1003.9
2022-08-03T07:06:41.315Z,1003.9
2022-08-03T07:07:42.378Z,1003.9
2022-08-03T07:08:43.407Z,1003.9
2022-08-03T07:09:54.979Z,1003.9
2022-08-03T07:10:45.357Z,1003.9
2022-08-03T07:11:46.314Z,1003.9
2022-08-03T07:12:52.864Z,1003.9
2022-08-03T07:13:48.416Z,1003.9
2022-08-03T07:14:49.337Z,1003.9
2022-08-03T07:15:54.815Z,1003.9
2022-08-03T07:16:51.356Z,1003.9
2022-08-03T07:17:53.354Z,1003.9
2022-08-03T07:18:54.356Z,1003.7
2022-08-03T07:19:55.365Z,1003.8
2022-08-03T07:20:56.398Z,1003.9
2022-08-03T07:21:58.357Z,1003.9
2022-08-03T07:22:58.339Z,1003.9
2022-08-03T07:23:59.477Z,1003.9
2022-08-03T07:25:00.396Z,1003.9
2022-08-03T07:26:01.394Z,1003.9
2022-08-03T07:27:02.454Z,1003.9
2022-08-03T07:28:04.442Z,1003.9
2022-08-03T07:29:10.930Z,1003.8
2022-08-03T07:30:07.415Z,1003.9
2022-08-03T07:31:09.374Z,1003.9
2022-08-03T07:32:10.483Z,1003.9
2022-08-03T07:33:11.372Z,1003.9
2022-08-03T07:34:12.755Z,1003.9
2022-08-03T07:35:15.543Z,1003.9
2022-08-03T07:36:15.376Z,1003.9
2022-08-03T07:37:16.353Z,1003.9
2022-08-03T07:38:17.367Z,1003.9
2022-08-03T07:39:18.413Z,1003.9
2022-08-03T07:40:19.454Z,1003.9
2022-08-03T07:41:20.327Z,1003.9
2022-08-03T07:42:21.414Z,1003.9
2022-08-03T07:43:23.456Z,1003.9
2022-08-03T07:44:24.395Z,1003.9
2022-08-03T07:45:25.374Z,1003.8
2022-08-03T07:46:26.708Z,1003.9
2022-08-03T07:47:35.174Z,1003.9
2022-08-03T07:48:28.375Z,1003.9
2022-08-03T07:49:29.508Z,1003.9
2022-08-03T07:50:30.455Z,1003.8
2022-08-03T07:51:31.338Z,1003.9
2022-08-03T07:52:32.394Z,1003.9
2022-08-03T07:53:33.378Z,1003.9
2022-08-03T07:54:34.441Z,1003.9
2022-08-03T07:55:35.474Z,1003.9
2022-08-03T07:56:36.374Z,1003.9
2022-08-03T07:57:37.376Z,1003.9
2022-08-03T07:58:38.394Z,1003.9
2022-08-03T07:59:49.024Z,1003.9
2022-08-03T08:00:40.575Z,1003.9
2022-08-03T08:01:41.552Z,1004
2022-08-03T08:02:43.334Z,1004
2022-08-03T08:03:52.491Z,1003.9
2022-08-03T08:04:45.374Z,1004
2022-08-03T08:05:46.375Z,1004
2022-08-03T08:06:47.363Z,1004
2022-08-03T08:07:50.959Z,1004
2022-08-03T08:08:49.403Z,1004
2022-08-03T08:09:50.414Z,1004
2022-08-03T08:10:56.926Z,1004
2022-08-03T08:11:52.475Z,1004
2022-08-03T08:12:54.397Z,1003.9
2022-08-03T08:13:55.395Z,1004
2022-08-03T08:14:56.377Z,1004
2022-08-03T08:15:57.354Z,1003.9
2022-08-03T08:16:58.373Z,1004
2022-08-03T08:17:59.415Z,1004
2022-08-03T08:19:00.415Z,1004
2022-08-03T08:20:01.414Z,1003.9
2022-08-03T08:21:02.415Z,1003.9
2022-08-03T08:22:03.435Z,1003.9
2022-08-03T08:23:06.941Z,1003.9
2022-08-03T08:24:08.274Z,1003.9
2022-08-03T08:25:06.455Z,1003.9
2022-08-03T08:26:07.520Z,1003.9
2022-08-03T08:27:09.397Z,1003.9
2022-08-03T08:28:21.667Z,1003.9
2022-08-03T08:29:12.374Z,1003.9
2022-08-03T08:30:17.324Z,1003.9
2022-08-03T08:31:14.394Z,1003.9
2022-08-03T08:32:15.749Z,1003.9
2022-08-03T08:33:22.898Z,1004
2022-08-03T08:34:17.435Z,1003.9
2022-08-03T08:35:18.413Z,1003.9
2022-08-03T08:36:19.580Z,1003.9
2022-08-03T08:37:20.393Z,1003.9
2022-08-03T08:38:21.393Z,1003.9
2022-08-03T08:39:22.416Z,1003.9
2022-08-03T08:40:23.453Z,1003.9
2022-08-03T08:41:24.406Z,1003.9
2022-08-03T08:42:25.434Z,1003.9
2022-08-03T08:43:27.464Z,1003.9
2022-08-03T08:44:28.435Z,1003.9
2022-08-03T08:45:29.534Z,1003.9
2022-08-03T08:46:30.454Z,1003.9
2022-08-03T08:47:50.761Z,1003.9
2022-08-03T08:48:32.453Z,1003.8
2022-08-03T08:49:33.539Z,1003.9
2022-08-03T08:50:34.453Z,1003.9
2022-08-03T08:51:43.911Z,1003.9
2022-08-03T08:52:37.504Z,1003.9
2022-08-03T08:53:39.494Z,1004
2022-08-03T08:54:40.493Z,1003.9
2022-08-03T08:55:56.576Z,1003.8
2022-08-03T08:56:42.370Z,1003.9
2022-08-03T08:57:43.641Z,1003.9
2022-08-03T08:58:44.407Z,1003.9
2022-08-03T08:59:48.140Z,1003.9
2022-08-03T09:00:46.440Z,1003.8
2022-08-03T09:01:47.444Z,1003.9
2022-08-03T09:02:48.454Z,1003.9
2022-08-03T09:03:49.436Z,1003.9
2022-08-03T09:04:50.469Z,1003.9
2022-08-03T09:05:56.010Z,1003.9
2022-08-03T09:07:10.771Z,1003.9
2022-08-03T09:07:53.475Z,1003.9
2022-08-03T09:08:54.518Z,1003.9
2022-08-03T09:10:01.384Z,1003.8
2022-08-03T09:10:57.435Z,1003.9
2022-08-03T09:12:14.530Z,1003.8
2022-08-03T09:12:59.514Z,1003.9
2022-08-03T09:14:00.494Z,1003.8
2022-08-03T09:15:16.284Z,1003.9
2022-08-03T09:16:02.553Z,1003.8
2022-08-03T09:17:03.490Z,1003.9
2022-08-03T09:18:04.424Z,1003.9
2022-08-03T09:19:05.462Z,1003.9
2022-08-03T09:20:06.533Z,1003.9
2022-08-03T09:21:24.463Z,1003.8
2022-08-03T09:22:08.413Z,1003.8
2022-08-03T09:23:33.404Z,1003.8
2022-08-03T09:24:20.846Z,1003.8
2022-08-03T09:25:26.095Z,1003.9
2022-08-03T09:26:12.398Z,1003.8
2022-08-03T09:27:13.474Z,1003.8
2022-08-03T09:28:14.453Z,1003.8
2022-08-03T09:29:15.657Z,1003.8
2022-08-03T09:30:19.202Z,1003.8
2022-08-03T09:31:17.494Z,1003.8
2022-08-03T09:32:18.542Z,1003.8
2022-08-03T09:33:20.473Z,1003.8
2022-08-03T09:34:21.454Z,1003.9
2022-08-03T09:35:27.971Z,1003.8
2022-08-03T09:36:23.414Z,1003.8
2022-08-03T09:37:26.122Z,1003.8
2022-08-03T09:38:25.454Z,1003.8
2022-08-03T09:39:40.211Z,1003.8
2022-08-03T09:40:27.413Z,1003.8
2022-08-03T09:41:28.473Z,1003.8
2022-08-03T09:42:29.436Z,1003.8
2022-08-03T09:43:30.493Z,1003.8
2022-08-03T09:44:31.463Z,1003.3
2022-08-03T09:45:32.473Z,1003.7
2022-08-03T09:46:33.481Z,1003.8
2022-08-03T09:47:34.629Z,1003.8
2022-08-03T09:48:35.456Z,1003.8
2022-08-03T09:49:36.500Z,1003.8
2022-08-03T09:50:37.433Z,1003.7
2022-08-03T09:52:30.190Z,1003.7
2022-08-03T09:52:49.563Z,1003.7
2022-08-03T09:53:42.515Z,1003.5
2022-08-03T09:54:43.457Z,1003.7
2022-08-03T09:56:31.064Z,1003.7
2022-08-03T09:56:45.455Z,1003.7
2022-08-03T09:57:46.512Z,1003.7
2022-08-03T09:58:47.493Z,1003.7
2022-08-03T09:59:48.473Z,1003.7
2022-08-03T10:00:49.545Z,1003.7
2022-08-03T10:01:50.429Z,1003.7
2022-08-03T10:02:51.554Z,1003.7
2022-08-03T10:04:02.665Z,1003.7
2022-08-03T10:04:53.454Z,1003.7
2022-08-03T10:05:59.143Z,1003.7
2022-08-03T10:06:55.505Z,1003.7
2022-08-03T10:07:56.474Z,1003.7
2022-08-03T10:08:57.533Z,1003.7
2022-08-03T10:09:58.456Z,1003.7
2022-08-03T10:10:59.473Z,1003.6
2022-08-03T10:12:00.474Z,1003.6
2022-08-03T10:13:01.416Z,1003.6
2022-08-03T10:14:02.553Z,1003.5
2022-08-03T10:15:03.643Z,1003.5
2022-08-03T10:16:21.054Z,1003.5
2022-08-03T10:17:05.547Z,1003.6
2022-08-03T10:18:06.550Z,1003.6
2022-08-03T10:19:07.465Z,1003.6
2022-08-03T10:20:08.557Z,1003.5
2022-08-03T10:21:09.495Z,1003.5
2022-08-03T10:22:10.513Z,1003.5
2022-08-03T10:23:11.516Z,1003.5
2022-08-03T10:24:12.380Z,1003.5
2022-08-03T10:25:13.677Z,1003.5
2022-08-03T10:26:14.474Z,1003.5
2022-08-03T10:27:15.815Z,1003.5
2022-08-03T10:28:16.484Z,1003.5
2022-08-03T10:29:18.086Z,1003.5
2022-08-03T10:30:19.535Z,1003.5
2022-08-03T10:31:20.494Z,1003.5
2022-08-03T10:32:21.495Z,1003.5
2022-08-03T10:33:50.608Z,1003.5
2022-08-03T10:34:23.542Z,1003.4
2022-08-03T10:35:24.607Z,1003.4
2022-08-03T10:36:25.552Z,1003.5
2022-08-03T10:37:26.473Z,1003.5
2022-08-03T10:38:27.474Z,1003.5
2022-08-03T10:39:28.433Z,1003.5
2022-08-03T10:40:59.435Z,1003.5
2022-08-03T10:41:30.604Z,1003.5
2022-08-03T10:42:31.493Z,1003.5
2022-08-03T10:43:32.515Z,1003.5
2022-08-03T10:44:33.464Z,1003.5
2022-08-03T10:45:34.554Z,1003.5
2022-08-03T10:46:35.497Z,1003.5
2022-08-03T10:47:36.536Z,1003.5
2022-08-03T10:48:37.497Z,1003.5
2022-08-03T10:49:38.578Z,1003.2
2022-08-03T10:50:40.556Z,1003.4
2022-08-03T10:51:41.453Z,1003.5
2022-08-03T10:52:43.558Z,1003.5
2022-08-03T10:53:44.097Z,1003.5
2022-08-03T10:54:44.492Z,1003.5
2022-08-03T10:55:45.561Z,1003.5
2022-08-03T10:56:47.283Z,1003.5
2022-08-03T10:57:48.943Z,1003.5
2022-08-03T10:58:53.617Z,1003.4
2022-08-03T10:59:49.493Z,1003.4
2022-08-03T11:00:50.548Z,1003.4
2022-08-03T11:01:59.341Z,1003.4
2022-08-03T11:02:52.453Z,1003.4
2022-08-03T11:03:53.496Z,1003.5
2022-08-03T11:04:54.494Z,1003.5
2022-08-03T11:05:55.573Z,1003.4
2022-08-03T11:06:56.496Z,1003.5
2022-08-03T11:07:57.493Z,1003.4
2022-08-03T11:08:58.534Z,1003.4
2022-08-03T11:09:59.588Z,1003.4
2022-08-03T11:11:00.616Z,1003.4
2022-08-03T11:12:01.495Z,1003.4
2022-08-03T11:13:02.562Z,1003.4
2022-08-03T11:14:03.614Z,1003.3
2022-08-03T11:15:04.580Z,1003.3
2022-08-03T11:16:07.143Z,1003.3
2022-08-03T11:17:06.522Z,1003.3
2022-08-03T11:18:07.518Z,1003.3
2022-08-03T11:19:08.553Z,1003.2
2022-08-03T11:20:09.633Z,1003.3
2022-08-03T11:21:10.533Z,1003.3
2022-08-03T11:22:11.513Z,1003.4
2022-08-03T11:23:12.553Z,1003.3
2022-08-03T11:24:13.493Z,1003.3
2022-08-03T11:25:52.988Z,1002.9
2022-08-03T11:26:15.612Z,1003.2
2022-08-03T11:27:16.732Z,1003.3
2022-08-03T11:28:17.600Z,1003.3
2022-08-03T11:29:18.529Z,1003.3
2022-08-03T11:30:19.616Z,1003.3
2022-08-03T11:31:39.530Z,1003.4
2022-08-03T11:32:21.573Z,1003.3
2022-08-03T11:33:22.503Z,1003.3
2022-08-03T11:34:23.470Z,1003.3
2022-08-03T11:35:24.533Z,1003.3
2022-08-03T11:36:32.161Z,1003.2
2022-08-03T11:37:32.935Z,1003.2
2022-08-03T11:38:28.533Z,1003.2
2022-08-03T11:39:32.553Z,1003.2
2022-08-03T11:40:33.493Z,1003.2
2022-08-03T11:41:42.842Z,1003.2
2022-08-03T11:42:35.581Z,1003.2
2022-08-03T11:43:36.549Z,1003.2
2022-08-03T11:44:37.467Z,1003.2
2022-08-03T11:45:38.514Z,1003.2
2022-08-03T11:46:39.514Z,1003.2
2022-08-03T11:47:50.399Z,1003.2
2022-08-03T11:48:41.561Z,1003.2
2022-08-03T11:49:42.651Z,1003.2
2022-08-03T11:50:43.534Z,1003.2
2022-08-03T11:51:44.661Z,1003.2
2022-08-03T11:52:46.593Z,1003.2
2022-08-03T11:53:47.533Z,1003.2
2022-08-03T11:54:48.520Z,1003.1
2022-08-03T11:55:49.524Z,1003.1
2022-08-03T11:56:50.513Z,1003.1
2022-08-03T11:58:57.659Z,1003.1
2022-08-03T11:59:00.377Z,1003.1
2022-08-03T11:59:53.563Z,1003.1
2022-08-03T12:00:54.563Z,1003.1
2022-08-03T12:01:55.514Z,1003.1
2022-08-03T12:02:56.752Z,1003.1
2022-08-03T12:03:58.701Z,1003.1
2022-08-03T12:04:59.635Z,1003.1
2022-08-03T12:06:00.554Z,1003.1
2022-08-03T12:07:01.515Z,1003.1
2022-08-03T12:08:06.294Z,1003.1
2022-08-03T12:09:04.496Z,1003.1
2022-08-03T12:10:05.554Z,1003.1
2022-08-03T12:11:06.499Z,1003.1
2022-08-03T12:12:07.562Z,1002.7
2022-08-03T12:13:57.338Z,1002.9
2022-08-03T12:14:46.008Z,1003
2022-08-03T12:15:11.594Z,1003
2022-08-03T12:16:12.541Z,1003
2022-08-03T12:17:13.514Z,1002.6
2022-08-03T12:18:14.574Z,1002.9
2022-08-03T12:19:15.574Z,1003
2022-08-03T12:20:16.503Z,1003
2022-08-03T12:21:17.594Z,1003
2022-08-03T12:22:18.554Z,1003
2022-08-03T12:23:19.633Z,1002.9
2022-08-03T12:24:20.634Z,1002.9
2022-08-03T12:25:38.396Z,1003
2022-08-03T12:26:22.603Z,1003
2022-08-03T12:27:23.633Z,1002.9
2022-08-03T12:28:28.511Z,1002.7
2022-08-03T12:29:26.600Z,1002.8
2022-08-03T12:30:27.614Z,1002.9
2022-08-03T12:31:28.554Z,1002.9
2022-08-03T12:32:29.521Z,1002.9
2022-08-03T12:33:30.554Z,1002.8
2022-08-03T12:34:31.541Z,1002.8
2022-08-03T12:35:32.594Z,1002.8
2022-08-03T12:36:33.554Z,1002.8
2022-08-03T12:37:34.793Z,1002.9
2022-08-03T12:38:36.257Z,1002.8
2022-08-03T12:39:36.524Z,1002.8
2022-08-03T12:40:37.634Z,1002.8
2022-08-03T12:41:38.534Z,1002.8
2022-08-03T12:42:39.622Z,1002.8
2022-08-03T12:43:40.575Z,1002.8
2022-08-03T12:44:41.535Z,1002.8
2022-08-03T12:45:42.594Z,1002.8
2022-08-03T12:46:47.644Z,1002.8